Aviation Digital Data Service (ADDS)

Output produced by METARs form (0920 UTC 24 March 2019)
found at http://www.aviationweather.gov/metar/data/
 
Forecast for: VTCC (CHIANG MAI(CIV/A, TH)
Text: TAF VTCC 240500Z 2406/2512 16005KT 2000 HZ NSC
Forecast period: 0600 UTC 24 March 2019 to 1200 UTC 25 March 2019
Forecast type: FROM: standard forecast or significant change
Winds: from the SSE (160 degrees) at 6 MPH (5 knots; 2.6 m/s)
Visibility: 1.24 miles (2.00 km)
Ceiling: unknown
Clouds: missing
Weather: HZ  (haze)